sensor_id;sensor_type;location;lat;lon;timestamp;P1;durP1;ratioP1;P2;durP2;ratioP2
19396;SDS011;9834;48.076;11.878;2023-06-26T00:02:16;3.53;;;3.23;;
19396;SDS011;9834;48.076;11.878;2023-06-26T00:04:43;4.93;;;3.90;;
19396;SDS011;9834;48.076;11.878;2023-06-26T00:07:10;3.83;;;3.40;;
19396;SDS011;9834;48.076;11.878;2023-06-26T00:09:37;3.70;;;3.40;;
19396;SDS011;9834;48.076;11.878;2023-06-26T00:12:06;3.53;;;3.23;;
19396;SDS011;9834;48.076;11.878;2023-06-26T00:14:33;3.43;;;3.13;;
19396;SDS011;9834;48.076;11.878;2023-06-26T00:17:00;3.93;;;3.20;;
19396;SDS011;9834;48.076;11.878;2023-06-26T00:19:26;4.03;;;3.47;;
19396;SDS011;9834;48.076;11.878;2023-06-26T00:21:53;6.03;;;3.63;;
19396;SDS011;9834;48.076;11.878;2023-06-26T00:24:20;5.73;;;3.93;;
19396;SDS011;9834;48.076;11.878;2023-06-26T00:26:47;5.20;;;3.13;;
19396;SDS011;9834;48.076;11.878;2023-06-26T00:29:16;5.80;;;3.60;;
19396;SDS011;9834;48.076;11.878;2023-06-26T00:31:43;5.40;;;3.57;;
19396;SDS011;9834;48.076;11.878;2023-06-26T00:34:10;5.43;;;3.47;;
19396;SDS011;9834;48.076;11.878;2023-06-26T00:36:36;6.27;;;4.07;;
19396;SDS011;9834;48.076;11.878;2023-06-26T00:39:03;4.07;;;3.60;;
19396;SDS011;9834;48.076;11.878;2023-06-26T00:41:30;5.10;;;3.40;;
19396;SDS011;9834;48.076;11.878;2023-06-26T00:43:57;3.73;;;3.43;;
19396;SDS011;9834;48.076;11.878;2023-06-26T00:46:25;4.33;;;3.67;;
19396;SDS011;9834;48.076;11.878;2023-06-26T00:48:53;4.57;;;3.93;;
19396;SDS011;9834;48.076;11.878;2023-06-26T00:51:21;4.00;;;3.30;;
19396;SDS011;9834;48.076;11.878;2023-06-26T00:53:48;4.90;;;3.67;;
19396;SDS011;9834;48.076;11.878;2023-06-26T00:56:15;4.17;;;3.40;;
19396;SDS011;9834;48.076;11.878;2023-06-26T00:58:44;8.00;;;2.80;;
19396;SDS011;9834;48.076;11.878;2023-06-26T01:01:11;4.93;;;4.13;;
19396;SDS011;9834;48.076;11.878;2023-06-26T01:03:43;2.93;;;2.73;;
19396;SDS011;9834;48.076;11.878;2023-06-26T01:06:11;3.73;;;3.33;;
19396;SDS011;9834;48.076;11.878;2023-06-26T01:08:40;3.67;;;3.37;;
19396;SDS011;9834;48.076;11.878;2023-06-26T01:11:08;3.40;;;3.10;;
19396;SDS011;9834;48.076;11.878;2023-06-26T01:13:35;5.40;;;4.10;;
19396;SDS011;9834;48.076;11.878;2023-06-26T01:16:02;8.00;;;3.90;;
19396;SDS011;9834;48.076;11.878;2023-06-26T01:18:31;5.13;;;3.80;;
19396;SDS011;9834;48.076;11.878;2023-06-26T01:21:02;6.50;;;3.83;;
19396;SDS011;9834;48.076;11.878;2023-06-26T01:23:30;5.80;;;3.53;;
19396;SDS011;9834;48.076;11.878;2023-06-26T01:26:13;3.90;;;3.53;;
19396;SDS011;9834;48.076;11.878;2023-06-26T01:28:43;4.70;;;3.57;;
19396;SDS011;9834;48.076;11.878;2023-06-26T01:31:11;3.50;;;3.20;;
19396;SDS011;9834;48.076;11.878;2023-06-26T01:33:39;3.97;;;3.07;;
19396;SDS011;9834;48.076;11.878;2023-06-26T01:36:07;4.10;;;3.70;;
19396;SDS011;9834;48.076;11.878;2023-06-26T01:38:34;4.33;;;3.37;;
19396;SDS011;9834;48.076;11.878;2023-06-26T01:41:01;6.50;;;3.87;;
19396;SDS011;9834;48.076;11.878;2023-06-26T01:43:34;3.57;;;3.20;;
19396;SDS011;9834;48.076;11.878;2023-06-26T01:46:09;7.00;;;4.13;;
19396;SDS011;9834;48.076;11.878;2023-06-26T01:48:45;5.50;;;3.30;;
19396;SDS011;9834;48.076;11.878;2023-06-26T01:51:17;4.07;;;3.10;;
19396;SDS011;9834;48.076;11.878;2023-06-26T01:53:49;5.07;;;3.43;;
19396;SDS011;9834;48.076;11.878;2023-06-26T01:56:19;3.73;;;3.03;;
19396;SDS011;9834;48.076;11.878;2023-06-26T01:58:51;3.17;;;2.57;;
19396;SDS011;9834;48.076;11.878;2023-06-26T02:01:20;3.63;;;3.13;;
19396;SDS011;9834;48.076;11.878;2023-06-26T02:03:48;3.43;;;2.97;;
19396;SDS011;9834;48.076;11.878;2023-06-26T02:06:15;5.17;;;3.43;;
19396;SDS011;9834;48.076;11.878;2023-06-26T02:08:41;4.23;;;3.47;;
19396;SDS011;9834;48.076;11.878;2023-06-26T02:11:08;3.97;;;3.60;;
19396;SDS011;9834;48.076;11.878;2023-06-26T02:13:35;4.57;;;3.43;;
19396;SDS011;9834;48.076;11.878;2023-06-26T02:16:03;3.60;;;3.27;;
19396;SDS011;9834;48.076;11.878;2023-06-26T02:18:30;3.47;;;3.07;;
19396;SDS011;9834;48.076;11.878;2023-06-26T02:20:57;4.50;;;3.40;;
19396;SDS011;9834;48.076;11.878;2023-06-26T02:23:25;3.77;;;3.40;;
19396;SDS011;9834;48.076;11.878;2023-06-26T02:25:52;5.07;;;3.87;;
19396;SDS011;9834;48.076;11.878;2023-06-26T02:28:18;4.50;;;3.57;;
19396;SDS011;9834;48.076;11.878;2023-06-26T02:30:45;4.97;;;3.83;;
19396;SDS011;9834;48.076;11.878;2023-06-26T02:33:13;4.10;;;3.33;;
19396;SDS011;9834;48.076;11.878;2023-06-26T02:35:40;4.93;;;4.10;;
19396;SDS011;9834;48.076;11.878;2023-06-26T02:38:08;4.70;;;3.10;;
19396;SDS011;9834;48.076;11.878;2023-06-26T02:40:35;3.83;;;3.43;;
19396;SDS011;9834;48.076;11.878;2023-06-26T02:43:02;5.60;;;4.17;;
19396;SDS011;9834;48.076;11.878;2023-06-26T02:45:29;3.47;;;2.97;;
19396;SDS011;9834;48.076;11.878;2023-06-26T02:47:56;5.27;;;3.30;;
19396;SDS011;9834;48.076;11.878;2023-06-26T02:50:24;5.40;;;3.67;;
19396;SDS011;9834;48.076;11.878;2023-06-26T02:52:51;4.93;;;2.83;;
19396;SDS011;9834;48.076;11.878;2023-06-26T02:55:18;6.83;;;3.50;;
19396;SDS011;9834;48.076;11.878;2023-06-26T02:57:45;5.43;;;3.87;;
19396;SDS011;9834;48.076;11.878;2023-06-26T03:00:12;5.20;;;3.10;;
19396;SDS011;9834;48.076;11.878;2023-06-26T03:02:40;4.37;;;3.97;;
19396;SDS011;9834;48.076;11.878;2023-06-26T03:05:07;5.37;;;3.50;;
19396;SDS011;9834;48.076;11.878;2023-06-26T03:07:35;7.50;;;4.67;;
19396;SDS011;9834;48.076;11.878;2023-06-26T03:10:02;5.07;;;3.57;;
19396;SDS011;9834;48.076;11.878;2023-06-26T03:12:30;4.50;;;3.73;;
19396;SDS011;9834;48.076;11.878;2023-06-26T03:14:57;4.33;;;3.93;;
19396;SDS011;9834;48.076;11.878;2023-06-26T03:17:24;5.57;;;3.67;;
19396;SDS011;9834;48.076;11.878;2023-06-26T03:19:51;6.77;;;4.40;;
19396;SDS011;9834;48.076;11.878;2023-06-26T03:22:18;6.93;;;3.43;;
19396;SDS011;9834;48.076;11.878;2023-06-26T03:24:46;5.70;;;3.83;;
19396;SDS011;9834;48.076;11.878;2023-06-26T03:27:13;5.03;;;4.10;;
19396;SDS011;9834;48.076;11.878;2023-06-26T03:29:39;3.83;;;3.30;;
19396;SDS011;9834;48.076;11.878;2023-06-26T03:32:07;3.77;;;3.30;;
19396;SDS011;9834;48.076;11.878;2023-06-26T03:34:34;4.87;;;3.63;;
19396;SDS011;9834;48.076;11.878;2023-06-26T03:37:01;5.63;;;3.47;;
19396;SDS011;9834;48.076;11.878;2023-06-26T03:39:28;4.87;;;3.93;;
19396;SDS011;9834;48.076;11.878;2023-06-26T03:41:56;8.53;;;4.03;;
19396;SDS011;9834;48.076;11.878;2023-06-26T03:44:25;4.47;;;3.63;;
19396;SDS011;9834;48.076;11.878;2023-06-26T03:46:52;6.23;;;4.33;;
19396;SDS011;9834;48.076;11.878;2023-06-26T03:49:19;7.40;;;4.33;;
19396;SDS011;9834;48.076;11.878;2023-06-26T03:51:46;6.50;;;4.17;;
19396;SDS011;9834;48.076;11.878;2023-06-26T03:54:13;5.70;;;4.37;;
19396;SDS011;9834;48.076;11.878;2023-06-26T03:56:40;5.90;;;4.17;;
19396;SDS011;9834;48.076;11.878;2023-06-26T03:59:08;7.07;;;4.27;;
19396;SDS011;9834;48.076;11.878;2023-06-26T04:01:35;5.90;;;4.93;;
19396;SDS011;9834;48.076;11.878;2023-06-26T04:04:03;4.37;;;3.97;;
19396;SDS011;9834;48.076;11.878;2023-06-26T04:06:30;5.50;;;4.53;;
19396;SDS011;9834;48.076;11.878;2023-06-26T04:08:58;4.87;;;3.97;;
19396;SDS011;9834;48.076;11.878;2023-06-26T04:11:25;4.50;;;3.87;;
19396;SDS011;9834;48.076;11.878;2023-06-26T04:13:52;5.43;;;3.97;;
19396;SDS011;9834;48.076;11.878;2023-06-26T04:16:21;6.47;;;3.70;;
19396;SDS011;9834;48.076;11.878;2023-06-26T04:18:50;4.87;;;4.37;;
19396;SDS011;9834;48.076;11.878;2023-06-26T04:21:17;5.70;;;4.33;;
19396;SDS011;9834;48.076;11.878;2023-06-26T04:23:45;4.80;;;3.60;;
19396;SDS011;9834;48.076;11.878;2023-06-26T04:26:12;4.23;;;3.33;;
19396;SDS011;9834;48.076;11.878;2023-06-26T04:28:39;4.37;;;3.53;;
19396;SDS011;9834;48.076;11.878;2023-06-26T04:31:07;8.47;;;3.90;;
19396;SDS011;9834;48.076;11.878;2023-06-26T04:33:36;6.23;;;4.67;;
19396;SDS011;9834;48.076;11.878;2023-06-26T04:36:03;6.53;;;4.10;;
19396;SDS011;9834;48.076;11.878;2023-06-26T04:38:30;5.53;;;3.97;;
19396;SDS011;9834;48.076;11.878;2023-06-26T04:40:58;5.90;;;3.77;;
19396;SDS011;9834;48.076;11.878;2023-06-26T04:43:25;4.70;;;4.03;;
19396;SDS011;9834;48.076;11.878;2023-06-26T04:45:52;9.13;;;4.53;;
19396;SDS011;9834;48.076;11.878;2023-06-26T04:48:18;6.47;;;4.63;;
19396;SDS011;9834;48.076;11.878;2023-06-26T04:50:47;4.80;;;3.97;;
19396;SDS011;9834;48.076;11.878;2023-06-26T04:53:18;5.40;;;4.67;;
19396;SDS011;9834;48.076;11.878;2023-06-26T04:55:45;4.63;;;3.83;;
19396;SDS011;9834;48.076;11.878;2023-06-26T04:58:12;5.20;;;3.97;;
19396;SDS011;9834;48.076;11.878;2023-06-26T05:00:39;5.07;;;3.93;;
19396;SDS011;9834;48.076;11.878;2023-06-26T05:03:07;3.70;;;3.37;;
19396;SDS011;9834;48.076;11.878;2023-06-26T05:05:34;6.07;;;3.93;;
19396;SDS011;9834;48.076;11.878;2023-06-26T05:08:14;6.67;;;3.77;;
19396;SDS011;9834;48.076;11.878;2023-06-26T05:10:41;6.53;;;4.47;;
19396;SDS011;9834;48.076;11.878;2023-06-26T05:13:09;5.53;;;3.70;;
19396;SDS011;9834;48.076;11.878;2023-06-26T05:15:36;5.07;;;4.00;;
19396;SDS011;9834;48.076;11.878;2023-06-26T05:18:03;3.93;;;3.60;;
19396;SDS011;9834;48.076;11.878;2023-06-26T05:20:31;6.17;;;4.10;;
19396;SDS011;9834;48.076;11.878;2023-06-26T05:22:58;6.63;;;4.37;;
19396;SDS011;9834;48.076;11.878;2023-06-26T05:25:28;6.30;;;3.43;;
19396;SDS011;9834;48.076;11.878;2023-06-26T05:27:56;5.97;;;4.00;;
19396;SDS011;9834;48.076;11.878;2023-06-26T05:30:23;4.70;;;4.27;;
19396;SDS011;9834;48.076;11.878;2023-06-26T05:32:51;6.73;;;5.07;;
19396;SDS011;9834;48.076;11.878;2023-06-26T05:35:20;5.73;;;3.97;;
19396;SDS011;9834;48.076;11.878;2023-06-26T05:37:49;6.73;;;4.37;;
19396;SDS011;9834;48.076;11.878;2023-06-26T05:40:17;6.53;;;4.53;;
19396;SDS011;9834;48.076;11.878;2023-06-26T05:42:46;6.10;;;4.07;;
19396;SDS011;9834;48.076;11.878;2023-06-26T05:45:14;5.00;;;3.77;;
19396;SDS011;9834;48.076;11.878;2023-06-26T05:47:41;3.63;;;3.23;;
19396;SDS011;9834;48.076;11.878;2023-06-26T05:50:09;5.40;;;3.87;;
19396;SDS011;9834;48.076;11.878;2023-06-26T05:52:37;7.10;;;3.73;;
19396;SDS011;9834;48.076;11.878;2023-06-26T05:55:05;4.83;;;4.13;;
19396;SDS011;9834;48.076;11.878;2023-06-26T05:57:32;6.53;;;4.20;;
19396;SDS011;9834;48.076;11.878;2023-06-26T06:00:03;4.07;;;3.67;;
19396;SDS011;9834;48.076;11.878;2023-06-26T06:02:35;4.23;;;3.83;;
19396;SDS011;9834;48.076;11.878;2023-06-26T06:05:02;4.13;;;3.73;;
19396;SDS011;9834;48.076;11.878;2023-06-26T06:07:30;4.00;;;3.27;;
19396;SDS011;9834;48.076;11.878;2023-06-26T06:09:57;5.53;;;4.13;;
19396;SDS011;9834;48.076;11.878;2023-06-26T06:12:24;3.47;;;3.07;;
19396;SDS011;9834;48.076;11.878;2023-06-26T06:14:51;4.80;;;3.73;;
19396;SDS011;9834;48.076;11.878;2023-06-26T06:17:19;4.87;;;3.97;;
19396;SDS011;9834;48.076;11.878;2023-06-26T06:19:46;10.60;;;3.53;;
19396;SDS011;9834;48.076;11.878;2023-06-26T06:22:13;3.43;;;3.03;;
19396;SDS011;9834;48.076;11.878;2023-06-26T06:24:41;5.53;;;4.10;;
19396;SDS011;9834;48.076;11.878;2023-06-26T06:27:09;4.57;;;3.17;;
19396;SDS011;9834;48.076;11.878;2023-06-26T06:29:35;5.33;;;3.90;;
19396;SDS011;9834;48.076;11.878;2023-06-26T06:32:03;3.17;;;2.90;;
19396;SDS011;9834;48.076;11.878;2023-06-26T06:34:31;4.50;;;3.08;;
19396;SDS011;9834;48.076;11.878;2023-06-26T06:36:58;3.58;;;3.22;;
19396;SDS011;9834;48.076;11.878;2023-06-26T06:39:25;3.88;;;3.55;;
19396;SDS011;9834;48.076;11.878;2023-06-26T06:41:52;5.07;;;2.72;;
19396;SDS011;9834;48.076;11.878;2023-06-26T06:44:19;3.50;;;3.17;;
19396;SDS011;9834;48.076;11.878;2023-06-26T06:46:46;6.20;;;3.83;;
19396;SDS011;9834;48.076;11.878;2023-06-26T06:49:13;3.95;;;2.97;;
19396;SDS011;9834;48.076;11.878;2023-06-26T06:51:41;4.28;;;3.88;;
19396;SDS011;9834;48.076;11.878;2023-06-26T06:54:08;9.15;;;4.22;;
19396;SDS011;9834;48.076;11.878;2023-06-26T06:56:35;4.63;;;4.18;;
19396;SDS011;9834;48.076;11.878;2023-06-26T06:59:02;5.30;;;4.05;;
19396;SDS011;9834;48.076;11.878;2023-06-26T07:01:29;4.38;;;3.55;;
19396;SDS011;9834;48.076;11.878;2023-06-26T07:03:56;3.45;;;3.15;;
19396;SDS011;9834;48.076;11.878;2023-06-26T07:06:23;4.03;;;3.65;;
19396;SDS011;9834;48.076;11.878;2023-06-26T07:08:51;7.80;;;3.97;;
19396;SDS011;9834;48.076;11.878;2023-06-26T07:11:18;4.03;;;3.50;;
19396;SDS011;9834;48.076;11.878;2023-06-26T07:13:44;4.15;;;3.75;;
19396;SDS011;9834;48.076;11.878;2023-06-26T07:16:11;4.32;;;3.92;;
19396;SDS011;9834;48.076;11.878;2023-06-26T07:18:40;3.42;;;3.13;;
19396;SDS011;9834;48.076;11.878;2023-06-26T07:21:08;4.63;;;3.83;;
19396;SDS011;9834;48.076;11.878;2023-06-26T07:23:35;4.57;;;3.78;;
19396;SDS011;9834;48.076;11.878;2023-06-26T07:26:03;3.60;;;3.13;;
19396;SDS011;9834;48.076;11.878;2023-06-26T07:28:30;6.50;;;3.83;;
19396;SDS011;9834;48.076;11.878;2023-06-26T07:30:57;6.93;;;3.80;;
19396;SDS011;9834;48.076;11.878;2023-06-26T07:33:24;7.13;;;4.07;;
19396;SDS011;9834;48.076;11.878;2023-06-26T07:35:51;5.30;;;3.65;;
19396;SDS011;9834;48.076;11.878;2023-06-26T07:38:18;8.95;;;3.80;;
19396;SDS011;9834;48.076;11.878;2023-06-26T07:40:45;4.63;;;3.50;;
19396;SDS011;9834;48.076;11.878;2023-06-26T07:43:13;4.90;;;4.22;;
19396;SDS011;9834;48.076;11.878;2023-06-26T07:45:40;4.05;;;3.65;;
19396;SDS011;9834;48.076;11.878;2023-06-26T07:48:07;3.83;;;3.47;;
19396;SDS011;9834;48.076;11.878;2023-06-26T07:50:34;3.70;;;2.90;;
19396;SDS011;9834;48.076;11.878;2023-06-26T07:53:01;3.58;;;3.00;;
19396;SDS011;9834;48.076;11.878;2023-06-26T07:55:28;10.30;;;4.03;;
19396;SDS011;9834;48.076;11.878;2023-06-26T07:57:55;4.80;;;3.83;;
19396;SDS011;9834;48.076;11.878;2023-06-26T08:00:23;3.05;;;2.75;;
19396;SDS011;9834;48.076;11.878;2023-06-26T08:02:51;4.05;;;3.75;;
19396;SDS011;9834;48.076;11.878;2023-06-26T08:05:18;3.63;;;3.33;;
19396;SDS011;9834;48.076;11.878;2023-06-26T08:07:45;4.95;;;3.63;;
19396;SDS011;9834;48.076;11.878;2023-06-26T08:10:11;3.25;;;2.90;;
19396;SDS011;9834;48.076;11.878;2023-06-26T08:12:38;5.90;;;4.05;;
19396;SDS011;9834;48.076;11.878;2023-06-26T08:15:08;4.38;;;3.17;;
19396;SDS011;9834;48.076;11.878;2023-06-26T08:17:36;4.43;;;4.00;;
19396;SDS011;9834;48.076;11.878;2023-06-26T08:20:04;7.13;;;4.03;;
19396;SDS011;9834;48.076;11.878;2023-06-26T08:22:33;4.40;;;3.75;;
19396;SDS011;9834;48.076;11.878;2023-06-26T08:24:59;4.10;;;3.40;;
19396;SDS011;9834;48.076;11.878;2023-06-26T08:27:26;4.03;;;3.25;;
19396;SDS011;9834;48.076;11.878;2023-06-26T08:29:53;3.55;;;3.28;;
19396;SDS011;9834;48.076;11.878;2023-06-26T08:32:20;4.25;;;2.20;;
19396;SDS011;9834;48.076;11.878;2023-06-26T08:34:48;3.60;;;3.30;;
19396;SDS011;9834;48.076;11.878;2023-06-26T08:37:15;5.07;;;4.00;;
19396;SDS011;9834;48.076;11.878;2023-06-26T08:39:43;6.85;;;3.53;;
19396;SDS011;9834;48.076;11.878;2023-06-26T08:42:09;5.13;;;3.85;;
19396;SDS011;9834;48.076;11.878;2023-06-26T08:44:36;5.43;;;3.33;;
19396;SDS011;9834;48.076;11.878;2023-06-26T08:47:03;3.10;;;2.80;;
19396;SDS011;9834;48.076;11.878;2023-06-26T08:49:34;3.47;;;3.17;;
19396;SDS011;9834;48.076;11.878;2023-06-26T08:52:10;3.75;;;3.30;;
19396;SDS011;9834;48.076;11.878;2023-06-26T08:54:45;4.13;;;3.15;;
19396;SDS011;9834;48.076;11.878;2023-06-26T08:57:14;4.70;;;3.08;;
19396;SDS011;9834;48.076;11.878;2023-06-26T08:59:44;4.07;;;3.65;;
19396;SDS011;9834;48.076;11.878;2023-06-26T09:02:12;4.35;;;3.15;;
19396;SDS011;9834;48.076;11.878;2023-06-26T09:04:39;4.85;;;3.60;;
19396;SDS011;9834;48.076;11.878;2023-06-26T09:07:07;3.85;;;3.33;;
19396;SDS011;9834;48.076;11.878;2023-06-26T09:09:35;4.28;;;3.40;;
19396;SDS011;9834;48.076;11.878;2023-06-26T09:12:03;8.32;;;4.03;;
19396;SDS011;9834;48.076;11.878;2023-06-26T09:14:30;4.78;;;3.15;;
19396;SDS011;9834;48.076;11.878;2023-06-26T09:16:57;3.33;;;3.03;;
19396;SDS011;9834;48.076;11.878;2023-06-26T09:19:24;3.53;;;3.22;;
19396;SDS011;9834;48.076;11.878;2023-06-26T09:21:52;5.60;;;3.85;;
19396;SDS011;9834;48.076;11.878;2023-06-26T09:24:21;4.70;;;4.00;;
19396;SDS011;9834;48.076;11.878;2023-06-26T09:26:48;4.28;;;3.20;;
19396;SDS011;9834;48.076;11.878;2023-06-26T09:29:17;3.75;;;3.35;;
19396;SDS011;9834;48.076;11.878;2023-06-26T09:31:44;2.60;;;2.40;;
19396;SDS011;9834;48.076;11.878;2023-06-26T09:34:11;3.47;;;3.17;;
19396;SDS011;9834;48.076;11.878;2023-06-26T09:36:38;3.25;;;2.90;;
19396;SDS011;9834;48.076;11.878;2023-06-26T09:39:07;4.22;;;3.20;;
19396;SDS011;9834;48.076;11.878;2023-06-26T09:41:37;3.28;;;2.92;;
19396;SDS011;9834;48.076;11.878;2023-06-26T09:44:05;3.05;;;2.72;;
19396;SDS011;9834;48.076;11.878;2023-06-26T09:46:33;3.63;;;2.75;;
19396;SDS011;9834;48.076;11.878;2023-06-26T09:49:01;3.08;;;2.78;;
19396;SDS011;9834;48.076;11.878;2023-06-26T09:51:30;2.88;;;2.67;;
19396;SDS011;9834;48.076;11.878;2023-06-26T09:53:57;3.90;;;2.78;;
19396;SDS011;9834;48.076;11.878;2023-06-26T09:56:24;5.35;;;2.75;;
19396;SDS011;9834;48.076;11.878;2023-06-26T09:58:54;3.38;;;3.08;;
19396;SDS011;9834;48.076;11.878;2023-06-26T10:01:22;3.53;;;2.72;;
19396;SDS011;9834;48.076;11.878;2023-06-26T10:03:50;3.55;;;3.17;;
19396;SDS011;9834;48.076;11.878;2023-06-26T10:06:18;1.98;;;1.88;;
19396;SDS011;9834;48.076;11.878;2023-06-26T10:08:48;3.53;;;2.72;;
19396;SDS011;9834;48.076;11.878;2023-06-26T10:11:16;2.72;;;2.53;;
19396;SDS011;9834;48.076;11.878;2023-06-26T10:13:47;3.50;;;2.42;;
19396;SDS011;9834;48.076;11.878;2023-06-26T10:16:21;4.90;;;2.67;;
19396;SDS011;9834;48.076;11.878;2023-06-26T10:18:50;3.83;;;3.28;;
19396;SDS011;9834;48.076;11.878;2023-06-26T10:21:20;2.50;;;2.30;;
19396;SDS011;9834;48.076;11.878;2023-06-26T10:23:49;4.93;;;2.88;;
19396;SDS011;9834;48.076;11.878;2023-06-26T10:26:18;4.38;;;2.40;;
19396;SDS011;9834;48.076;11.878;2023-06-26T10:28:48;3.92;;;3.50;;
19396;SDS011;9834;48.076;11.878;2023-06-26T10:31:18;2.83;;;2.63;;
19396;SDS011;9834;48.076;11.878;2023-06-26T10:33:48;3.05;;;2.85;;
19396;SDS011;9834;48.076;11.878;2023-06-26T10:36:16;3.47;;;2.85;;
19396;SDS011;9834;48.076;11.878;2023-06-26T10:38:51;2.13;;;2.03;;
19396;SDS011;9834;48.076;11.878;2023-06-26T10:41:19;4.30;;;2.47;;
19396;SDS011;9834;48.076;11.878;2023-06-26T10:43:51;2.78;;;2.58;;
19396;SDS011;9834;48.076;11.878;2023-06-26T10:46:34;6.60;;;2.53;;
19396;SDS011;9834;48.076;11.878;2023-06-26T10:49:15;2.90;;;2.70;;
19396;SDS011;9834;48.076;11.878;2023-06-26T10:51:45;2.92;;;2.65;;
19396;SDS011;9834;48.076;11.878;2023-06-26T10:54:13;2.90;;;2.70;;
19396;SDS011;9834;48.076;11.878;2023-06-26T10:56:41;2.08;;;1.92;;
19396;SDS011;9834;48.076;11.878;2023-06-26T10:59:16;3.60;;;2.35;;
19396;SDS011;9834;48.076;11.878;2023-06-26T11:01:46;3.20;;;2.92;;
19396;SDS011;9834;48.076;11.878;2023-06-26T11:04:21;2.40;;;2.20;;
19396;SDS011;9834;48.076;11.878;2023-06-26T11:07:15;3.58;;;2.97;;
19396;SDS011;9834;48.076;11.878;2023-06-26T11:09:57;3.33;;;2.90;;
19396;SDS011;9834;48.076;11.878;2023-06-26T11:12:34;3.20;;;2.45;;
19396;SDS011;9834;48.076;11.878;2023-06-26T11:15:01;4.90;;;2.88;;
19396;SDS011;9834;48.076;11.878;2023-06-26T11:17:30;2.35;;;2.15;;
19396;SDS011;9834;48.076;11.878;2023-06-26T11:19:57;3.35;;;2.30;;
19396;SDS011;9834;48.076;11.878;2023-06-26T11:22:25;2.60;;;2.40;;
19396;SDS011;9834;48.076;11.878;2023-06-26T11:24:53;2.67;;;2.10;;
19396;SDS011;9834;48.076;11.878;2023-06-26T11:27:20;2.45;;;2.25;;
19396;SDS011;9834;48.076;11.878;2023-06-26T11:29:49;3.42;;;2.03;;
19396;SDS011;9834;48.076;11.878;2023-06-26T11:32:16;3.45;;;1.83;;
19396;SDS011;9834;48.076;11.878;2023-06-26T11:34:44;3.40;;;2.60;;
19396;SDS011;9834;48.076;11.878;2023-06-26T11:37:16;2.00;;;1.90;;
19396;SDS011;9834;48.076;11.878;2023-06-26T11:39:43;1.95;;;1.85;;
19396;SDS011;9834;48.076;11.878;2023-06-26T11:42:10;4.72;;;2.50;;
19396;SDS011;9834;48.076;11.878;2023-06-26T11:44:39;1.98;;;1.88;;
19396;SDS011;9834;48.076;11.878;2023-06-26T11:47:11;3.00;;;2.28;;
19396;SDS011;9834;48.076;11.878;2023-06-26T11:49:39;2.60;;;2.13;;
19396;SDS011;9834;48.076;11.878;2023-06-26T11:52:10;2.30;;;2.15;;
19396;SDS011;9834;48.076;11.878;2023-06-26T11:54:37;2.50;;;2.30;;
19396;SDS011;9834;48.076;11.878;2023-06-26T11:57:04;2.30;;;2.05;;
19396;SDS011;9834;48.076;11.878;2023-06-26T11:59:32;2.78;;;2.53;;
19396;SDS011;9834;48.076;11.878;2023-06-26T12:02:01;3.60;;;2.08;;
19396;SDS011;9834;48.076;11.878;2023-06-26T12:04:31;2.53;;;2.33;;
19396;SDS011;9834;48.076;11.878;2023-06-26T12:07:00;3.45;;;2.65;;
19396;SDS011;9834;48.076;11.878;2023-06-26T12:09:30;2.85;;;2.45;;
19396;SDS011;9834;48.076;11.878;2023-06-26T12:11:59;3.25;;;2.30;;
19396;SDS011;9834;48.076;11.878;2023-06-26T12:14:27;2.20;;;2.00;;
19396;SDS011;9834;48.076;11.878;2023-06-26T12:16:54;2.17;;;2.03;;
19396;SDS011;9834;48.076;11.878;2023-06-26T12:19:24;3.22;;;2.80;;
19396;SDS011;9834;48.076;11.878;2023-06-26T12:21:52;2.45;;;2.25;;
19396;SDS011;9834;48.076;11.878;2023-06-26T12:24:22;3.42;;;2.50;;
19396;SDS011;9834;48.076;11.878;2023-06-26T12:26:52;3.28;;;2.97;;
19396;SDS011;9834;48.076;11.878;2023-06-26T12:29:22;2.50;;;2.30;;
19396;SDS011;9834;48.076;11.878;2023-06-26T12:31:57;4.85;;;3.13;;
19396;SDS011;9834;48.076;11.878;2023-06-26T12:34:26;3.78;;;2.42;;
19396;SDS011;9834;48.076;11.878;2023-06-26T12:36:58;2.08;;;1.98;;
19396;SDS011;9834;48.076;11.878;2023-06-26T12:39:27;4.30;;;2.47;;
19396;SDS011;9834;48.076;11.878;2023-06-26T12:41:56;2.88;;;2.67;;
19396;SDS011;9834;48.076;11.878;2023-06-26T12:44:26;2.75;;;2.53;;
19396;SDS011;9834;48.076;11.878;2023-06-26T12:46:54;4.32;;;3.17;;
19396;SDS011;9834;48.076;11.878;2023-06-26T12:49:29;2.85;;;2.60;;
19396;SDS011;9834;48.076;11.878;2023-06-26T12:51:57;3.75;;;2.67;;
19396;SDS011;9834;48.076;11.878;2023-06-26T12:54:25;3.53;;;3.10;;
19396;SDS011;9834;48.076;11.878;2023-06-26T12:56:52;2.70;;;2.50;;
19396;SDS011;9834;48.076;11.878;2023-06-26T12:59:20;3.42;;;3.03;;
19396;SDS011;9834;48.076;11.878;2023-06-26T13:01:47;5.72;;;3.75;;
19396;SDS011;9834;48.076;11.878;2023-06-26T13:04:14;3.08;;;2.88;;
19396;SDS011;9834;48.076;11.878;2023-06-26T13:06:41;4.75;;;3.33;;
19396;SDS011;9834;48.076;11.878;2023-06-26T13:09:08;3.92;;;2.85;;
19396;SDS011;9834;48.076;11.878;2023-06-26T13:11:36;3.88;;;2.67;;
19396;SDS011;9834;48.076;11.878;2023-06-26T13:14:03;2.50;;;2.30;;
19396;SDS011;9834;48.076;11.878;2023-06-26T13:16:32;2.70;;;2.50;;
19396;SDS011;9834;48.076;11.878;2023-06-26T13:18:59;3.40;;;3.20;;
19396;SDS011;9834;48.076;11.878;2023-06-26T13:21:26;2.10;;;2.00;;
19396;SDS011;9834;48.076;11.878;2023-06-26T13:23:54;3.55;;;3.25;;
19396;SDS011;9834;48.076;11.878;2023-06-26T13:26:21;5.05;;;2.42;;
19396;SDS011;9834;48.076;11.878;2023-06-26T13:28:49;3.13;;;2.88;;
19396;SDS011;9834;48.076;11.878;2023-06-26T13:31:16;4.80;;;3.10;;
19396;SDS011;9834;48.076;11.878;2023-06-26T13:33:45;3.28;;;2.95;;
19396;SDS011;9834;48.076;11.878;2023-06-26T13:36:14;4.40;;;2.95;;
19396;SDS011;9834;48.076;11.878;2023-06-26T13:38:41;5.35;;;3.08;;
19396;SDS011;9834;48.076;11.878;2023-06-26T13:41:08;3.97;;;2.90;;
19396;SDS011;9834;48.076;11.878;2023-06-26T13:43:35;6.25;;;3.53;;
19396;SDS011;9834;48.076;11.878;2023-06-26T13:46:02;2.72;;;2.53;;
19396;SDS011;9834;48.076;11.878;2023-06-26T13:48:29;2.67;;;2.47;;
19396;SDS011;9834;48.076;11.878;2023-06-26T13:50:58;3.55;;;3.13;;
19396;SDS011;9834;48.076;11.878;2023-06-26T13:53:25;2.60;;;2.40;;
19396;SDS011;9834;48.076;11.878;2023-06-26T13:55:52;4.35;;;3.38;;
19396;SDS011;9834;48.076;11.878;2023-06-26T13:58:19;4.18;;;3.47;;
19396;SDS011;9834;48.076;11.878;2023-06-26T14:00:47;3.55;;;3.25;;
19396;SDS011;9834;48.076;11.878;2023-06-26T14:03:14;3.33;;;3.03;;
19396;SDS011;9834;48.076;11.878;2023-06-26T14:05:42;4.63;;;3.35;;
19396;SDS011;9834;48.076;11.878;2023-06-26T14:08:11;7.35;;;2.88;;
19396;SDS011;9834;48.076;11.878;2023-06-26T14:10:38;3.40;;;2.58;;
19396;SDS011;9834;48.076;11.878;2023-06-26T14:13:05;3.05;;;2.72;;
19396;SDS011;9834;48.076;11.878;2023-06-26T14:15:32;3.05;;;2.72;;
19396;SDS011;9834;48.076;11.878;2023-06-26T14:18:00;3.72;;;3.42;;
19396;SDS011;9834;48.076;11.878;2023-06-26T14:20:29;2.72;;;2.53;;
19396;SDS011;9834;48.076;11.878;2023-06-26T14:22:58;3.60;;;3.30;;
19396;SDS011;9834;48.076;11.878;2023-06-26T14:25:26;5.50;;;3.20;;
19396;SDS011;9834;48.076;11.878;2023-06-26T14:27:53;4.03;;;3.55;;
19396;SDS011;9834;48.076;11.878;2023-06-26T14:30:21;6.85;;;3.45;;
19396;SDS011;9834;48.076;11.878;2023-06-26T14:32:48;3.33;;;3.13;;
19396;SDS011;9834;48.076;11.878;2023-06-26T14:35:15;3.38;;;3.08;;
19396;SDS011;9834;48.076;11.878;2023-06-26T14:37:41;3.25;;;2.95;;
19396;SDS011;9834;48.076;11.878;2023-06-26T14:40:09;4.72;;;3.70;;
19396;SDS011;9834;48.076;11.878;2023-06-26T14:42:38;3.88;;;3.50;;
19396;SDS011;9834;48.076;11.878;2023-06-26T14:45:05;3.55;;;3.22;;
19396;SDS011;9834;48.076;11.878;2023-06-26T14:47:33;5.10;;;3.53;;
19396;SDS011;9834;48.076;11.878;2023-06-26T14:50:00;4.00;;;3.20;;
19396;SDS011;9834;48.076;11.878;2023-06-26T14:52:27;3.53;;;3.00;;
19396;SDS011;9834;48.076;11.878;2023-06-26T14:54:54;2.95;;;2.75;;